sensor_id;sensor_type;location;lat;lon;timestamp;P1;durP1;ratioP1;P2;durP2;ratioP2
65202;SDS011;51788;45.124;38.966;2023-03-01T00:02:03;9.50;;;7.43;;
65202;SDS011;51788;45.124;38.966;2023-03-01T00:04:30;5.85;;;5.32;;
65202;SDS011;51788;45.124;38.966;2023-03-01T00:06:56;6.88;;;6.18;;
65202;SDS011;51788;45.124;38.966;2023-03-01T00:09:22;9.63;;;7.88;;
65202;SDS011;51788;45.124;38.966;2023-03-01T00:11:48;8.93;;;6.93;;
65202;SDS011;51788;45.124;38.966;2023-03-01T00:14:14;8.75;;;6.78;;
65202;SDS011;51788;45.124;38.966;2023-03-01T00:16:44;7.55;;;6.78;;
65202;SDS011;51788;45.124;38.966;2023-03-01T00:19:12;11.43;;;6.55;;
65202;SDS011;51788;45.124;38.966;2023-03-01T00:21:40;8.95;;;6.05;;
65202;SDS011;51788;45.124;38.966;2023-03-01T00:24:06;11.07;;;6.80;;
65202;SDS011;51788;45.124;38.966;2023-03-01T00:26:32;11.77;;;6.63;;
65202;SDS011;51788;45.124;38.966;2023-03-01T00:28:58;7.30;;;6.55;;
65202;SDS011;51788;45.124;38.966;2023-03-01T00:31:26;8.00;;;7.07;;
65202;SDS011;51788;45.124;38.966;2023-03-01T00:33:55;8.05;;;7.18;;
65202;SDS011;51788;45.124;38.966;2023-03-01T00:36:23;9.00;;;6.78;;
65202;SDS011;51788;45.124;38.966;2023-03-01T00:38:51;8.88;;;5.85;;
65202;SDS011;51788;45.124;38.966;2023-03-01T00:41:17;10.07;;;7.72;;
65202;SDS011;51788;45.124;38.966;2023-03-01T00:43:44;7.82;;;6.88;;
65202;SDS011;51788;45.124;38.966;2023-03-01T00:46:14;13.10;;;8.18;;
65202;SDS011;51788;45.124;38.966;2023-03-01T00:48:42;8.65;;;7.35;;
65202;SDS011;51788;45.124;38.966;2023-03-01T00:51:09;8.75;;;6.95;;
65202;SDS011;51788;45.124;38.966;2023-03-01T00:53:37;10.63;;;8.70;;
65202;SDS011;51788;45.124;38.966;2023-03-01T00:56:04;9.05;;;7.75;;
65202;SDS011;51788;45.124;38.966;2023-03-01T00:58:31;8.30;;;7.10;;
65202;SDS011;51788;45.124;38.966;2023-03-01T01:00:57;9.85;;;8.10;;
65202;SDS011;51788;45.124;38.966;2023-03-01T01:03:23;10.10;;;8.50;;
65202;SDS011;51788;45.124;38.966;2023-03-01T01:05:50;13.38;;;7.47;;
65202;SDS011;51788;45.124;38.966;2023-03-01T01:08:18;8.90;;;7.50;;
65202;SDS011;51788;45.124;38.966;2023-03-01T01:10:45;11.75;;;7.82;;
65202;SDS011;51788;45.124;38.966;2023-03-01T01:13:12;11.38;;;8.63;;
65202;SDS011;51788;45.124;38.966;2023-03-01T01:15:38;13.27;;;8.52;;
65202;SDS011;51788;45.124;38.966;2023-03-01T01:18:05;11.68;;;8.80;;
65202;SDS011;51788;45.124;38.966;2023-03-01T01:20:31;10.20;;;8.18;;
65202;SDS011;51788;45.124;38.966;2023-03-01T01:22:57;12.73;;;8.20;;
65202;SDS011;51788;45.124;38.966;2023-03-01T01:25:23;12.57;;;8.27;;
65202;SDS011;51788;45.124;38.966;2023-03-01T01:27:52;11.77;;;8.90;;
65202;SDS011;51788;45.124;38.966;2023-03-01T01:30:18;9.60;;;7.82;;
65202;SDS011;51788;45.124;38.966;2023-03-01T01:32:44;18.15;;;7.13;;
65202;SDS011;51788;45.124;38.966;2023-03-01T01:35:10;8.95;;;7.85;;
65202;SDS011;51788;45.124;38.966;2023-03-01T01:37:35;12.25;;;9.65;;
65202;SDS011;51788;45.124;38.966;2023-03-01T01:40:02;12.70;;;10.10;;
65202;SDS011;51788;45.124;38.966;2023-03-01T01:42:31;13.50;;;10.48;;
65202;SDS011;51788;45.124;38.966;2023-03-01T01:48:10;11.23;;;9.10;;
65202;SDS011;51788;45.124;38.966;2023-03-01T01:50:41;13.15;;;7.72;;
65202;SDS011;51788;45.124;38.966;2023-03-01T01:53:14;10.38;;;8.63;;
65202;SDS011;51788;45.124;38.966;2023-03-01T01:55:45;11.80;;;10.13;;
65202;SDS011;51788;45.124;38.966;2023-03-01T01:58:17;12.05;;;9.23;;
65202;SDS011;51788;45.124;38.966;2023-03-01T02:00:45;16.27;;;9.30;;
65202;SDS011;51788;45.124;38.966;2023-03-01T02:03:13;10.50;;;8.13;;
65202;SDS011;51788;45.124;38.966;2023-03-01T02:08:32;12.25;;;7.75;;
65202;SDS011;51788;45.124;38.966;2023-03-01T02:11:00;16.33;;;10.38;;
65202;SDS011;51788;45.124;38.966;2023-03-01T02:13:30;11.90;;;8.50;;
65202;SDS011;51788;45.124;38.966;2023-03-01T02:15:57;10.45;;;8.13;;
65202;SDS011;51788;45.124;38.966;2023-03-01T02:18:23;16.92;;;10.77;;
65202;SDS011;51788;45.124;38.966;2023-03-01T02:21:03;11.40;;;8.82;;
65202;SDS011;51788;45.124;38.966;2023-03-01T02:23:31;11.95;;;9.65;;
65202;SDS011;51788;45.124;38.966;2023-03-01T02:26:01;8.20;;;7.35;;
65202;SDS011;51788;45.124;38.966;2023-03-01T02:28:40;11.02;;;8.23;;
65202;SDS011;51788;45.124;38.966;2023-03-01T02:31:08;14.30;;;10.27;;
65202;SDS011;51788;45.124;38.966;2023-03-01T02:33:53;12.43;;;9.07;;
65202;SDS011;51788;45.124;38.966;2023-03-01T02:36:22;9.00;;;7.95;;
65202;SDS011;51788;45.124;38.966;2023-03-01T02:38:51;15.75;;;10.02;;
65202;SDS011;51788;45.124;38.966;2023-03-01T02:41:21;13.05;;;9.80;;
65202;SDS011;51788;45.124;38.966;2023-03-01T02:43:48;13.20;;;10.00;;
65202;SDS011;51788;45.124;38.966;2023-03-01T02:46:19;11.52;;;8.85;;
65202;SDS011;51788;45.124;38.966;2023-03-01T02:48:51;17.42;;;10.15;;
65202;SDS011;51788;45.124;38.966;2023-03-01T02:56:54;12.43;;;9.38;;
65202;SDS011;51788;45.124;38.966;2023-03-01T02:59:23;13.27;;;8.48;;
65202;SDS011;51788;45.124;38.966;2023-03-01T03:01:52;16.50;;;10.27;;
65202;SDS011;51788;45.124;38.966;2023-03-01T03:04:19;12.65;;;9.70;;
65202;SDS011;51788;45.124;38.966;2023-03-01T03:06:48;12.55;;;9.43;;
65202;SDS011;51788;45.124;38.966;2023-03-01T03:09:17;13.20;;;9.13;;
65202;SDS011;51788;45.124;38.966;2023-03-01T03:11:44;14.65;;;9.15;;
65202;SDS011;51788;45.124;38.966;2023-03-01T03:14:11;15.60;;;10.60;;
65202;SDS011;51788;45.124;38.966;2023-03-01T03:16:43;12.05;;;9.15;;
65202;SDS011;51788;45.124;38.966;2023-03-01T03:19:11;11.82;;;8.63;;
65202;SDS011;51788;45.124;38.966;2023-03-01T03:21:37;20.00;;;8.95;;
65202;SDS011;51788;45.124;38.966;2023-03-01T03:24:03;12.30;;;8.80;;
65202;SDS011;51788;45.124;38.966;2023-03-01T03:26:30;17.90;;;10.85;;
65202;SDS011;51788;45.124;38.966;2023-03-01T03:28:56;12.27;;;8.80;;
65202;SDS011;51788;45.124;38.966;2023-03-01T03:31:22;12.25;;;8.75;;
65202;SDS011;51788;45.124;38.966;2023-03-01T03:33:48;14.38;;;9.45;;
65202;SDS011;51788;45.124;38.966;2023-03-01T03:36:15;13.85;;;9.90;;
65202;SDS011;51788;45.124;38.966;2023-03-01T03:38:43;13.10;;;10.18;;
65202;SDS011;51788;45.124;38.966;2023-03-01T03:41:10;11.65;;;9.35;;
65202;SDS011;51788;45.124;38.966;2023-03-01T03:43:37;12.02;;;9.25;;
65202;SDS011;51788;45.124;38.966;2023-03-01T03:46:05;11.68;;;8.50;;
65202;SDS011;51788;45.124;38.966;2023-03-01T03:48:39;14.65;;;9.30;;
65202;SDS011;51788;45.124;38.966;2023-03-01T03:51:06;31.85;;;11.18;;
65202;SDS011;51788;45.124;38.966;2023-03-01T03:53:35;19.20;;;9.82;;
65202;SDS011;51788;45.124;38.966;2023-03-01T03:56:01;15.25;;;9.38;;
65202;SDS011;51788;45.124;38.966;2023-03-01T03:58:27;15.35;;;9.98;;
65202;SDS011;51788;45.124;38.966;2023-03-01T04:00:54;15.98;;;9.77;;
65202;SDS011;51788;45.124;38.966;2023-03-01T04:03:22;12.73;;;9.77;;
65202;SDS011;51788;45.124;38.966;2023-03-01T04:05:50;12.15;;;9.77;;
65202;SDS011;51788;45.124;38.966;2023-03-01T04:08:17;14.68;;;9.93;;
65202;SDS011;51788;45.124;38.966;2023-03-01T04:10:46;14.80;;;10.65;;
65202;SDS011;51788;45.124;38.966;2023-03-01T04:13:15;19.45;;;10.15;;
65202;SDS011;51788;45.124;38.966;2023-03-01T04:15:45;14.10;;;8.88;;
65202;SDS011;51788;45.124;38.966;2023-03-01T04:18:14;21.13;;;11.25;;
65202;SDS011;51788;45.124;38.966;2023-03-01T04:20:42;50.67;;;11.35;;
65202;SDS011;51788;45.124;38.966;2023-03-01T04:23:14;17.88;;;10.77;;
65202;SDS011;51788;45.124;38.966;2023-03-01T04:25:47;23.30;;;12.98;;
65202;SDS011;51788;45.124;38.966;2023-03-01T04:30:46;15.10;;;9.45;;
65202;SDS011;51788;45.124;38.966;2023-03-01T04:33:13;16.35;;;10.45;;
65202;SDS011;51788;45.124;38.966;2023-03-01T04:35:38;19.23;;;11.18;;
65202;SDS011;51788;45.124;38.966;2023-03-01T04:38:05;18.50;;;11.40;;
65202;SDS011;51788;45.124;38.966;2023-03-01T04:40:32;19.40;;;11.05;;
65202;SDS011;51788;45.124;38.966;2023-03-01T04:42:58;24.15;;;11.13;;
65202;SDS011;51788;45.124;38.966;2023-03-01T04:45:24;14.77;;;9.82;;
65202;SDS011;51788;45.124;38.966;2023-03-01T04:47:50;18.17;;;12.35;;
65202;SDS011;51788;45.124;38.966;2023-03-01T04:50:18;15.85;;;10.57;;
65202;SDS011;51788;45.124;38.966;2023-03-01T04:52:48;30.20;;;11.85;;
65202;SDS011;51788;45.124;38.966;2023-03-01T04:55:15;32.30;;;11.13;;
65202;SDS011;51788;45.124;38.966;2023-03-01T04:57:41;23.15;;;11.18;;
65202;SDS011;51788;45.124;38.966;2023-03-01T05:00:08;16.10;;;11.32;;
65202;SDS011;51788;45.124;38.966;2023-03-01T05:02:46;53.17;;;11.90;;
65202;SDS011;51788;45.124;38.966;2023-03-01T05:05:14;21.20;;;11.40;;
65202;SDS011;51788;45.124;38.966;2023-03-01T05:07:40;22.08;;;12.57;;
65202;SDS011;51788;45.124;38.966;2023-03-01T05:10:06;26.30;;;11.02;;
65202;SDS011;51788;45.124;38.966;2023-03-01T05:12:33;17.35;;;11.30;;
65202;SDS011;51788;45.124;38.966;2023-03-01T05:14:58;12.57;;;9.10;;
65202;SDS011;51788;45.124;38.966;2023-03-01T05:17:24;15.70;;;10.73;;
65202;SDS011;51788;45.124;38.966;2023-03-01T05:19:50;21.63;;;11.10;;
65202;SDS011;51788;45.124;38.966;2023-03-01T05:22:16;16.52;;;10.57;;
65202;SDS011;51788;45.124;38.966;2023-03-01T05:24:42;17.58;;;10.50;;
65202;SDS011;51788;45.124;38.966;2023-03-01T05:27:08;17.27;;;10.57;;
65202;SDS011;51788;45.124;38.966;2023-03-01T05:29:34;27.05;;;11.45;;
65202;SDS011;51788;45.124;38.966;2023-03-01T05:32:00;20.70;;;11.68;;
65202;SDS011;51788;45.124;38.966;2023-03-01T05:34:29;17.33;;;10.43;;
65202;SDS011;51788;45.124;38.966;2023-03-01T05:36:57;15.43;;;10.50;;
65202;SDS011;51788;45.124;38.966;2023-03-01T05:39:24;30.42;;;11.52;;
65202;SDS011;51788;45.124;38.966;2023-03-01T05:41:54;19.67;;;10.88;;
65202;SDS011;51788;45.124;38.966;2023-03-01T05:44:24;12.75;;;9.80;;
65202;SDS011;51788;45.124;38.966;2023-03-01T05:46:51;18.13;;;11.18;;
65202;SDS011;51788;45.124;38.966;2023-03-01T05:49:17;23.05;;;12.10;;
65202;SDS011;51788;45.124;38.966;2023-03-01T05:51:47;16.25;;;11.45;;
65202;SDS011;51788;45.124;38.966;2023-03-01T05:54:14;14.43;;;9.80;;
65202;SDS011;51788;45.124;38.966;2023-03-01T05:56:40;18.85;;;12.48;;
65202;SDS011;51788;45.124;38.966;2023-03-01T05:59:06;16.77;;;10.50;;
65202;SDS011;51788;45.124;38.966;2023-03-01T06:01:32;15.05;;;10.05;;
65202;SDS011;51788;45.124;38.966;2023-03-01T06:03:59;21.83;;;11.65;;
65202;SDS011;51788;45.124;38.966;2023-03-01T06:06:27;27.20;;;12.90;;
65202;SDS011;51788;45.124;38.966;2023-03-01T06:08:53;19.30;;;12.27;;
65202;SDS011;51788;45.124;38.966;2023-03-01T06:11:20;16.98;;;13.05;;
65202;SDS011;51788;45.124;38.966;2023-03-01T06:13:46;17.55;;;10.30;;
65202;SDS011;51788;45.124;38.966;2023-03-01T06:16:13;21.98;;;15.25;;
65202;SDS011;51788;45.124;38.966;2023-03-01T06:18:40;13.95;;;9.82;;
65202;SDS011;51788;45.124;38.966;2023-03-01T06:21:06;31.83;;;11.85;;
65202;SDS011;51788;45.124;38.966;2023-03-01T06:23:33;21.20;;;9.82;;
65202;SDS011;51788;45.124;38.966;2023-03-01T06:26:00;26.30;;;13.85;;
65202;SDS011;51788;45.124;38.966;2023-03-01T06:28:30;21.20;;;11.02;;
65202;SDS011;51788;45.124;38.966;2023-03-01T06:30:56;28.23;;;13.48;;
65202;SDS011;51788;45.124;38.966;2023-03-01T06:33:21;28.58;;;12.25;;
65202;SDS011;51788;45.124;38.966;2023-03-01T06:35:49;21.50;;;12.68;;
65202;SDS011;51788;45.124;38.966;2023-03-01T06:38:16;23.15;;;11.48;;
65202;SDS011;51788;45.124;38.966;2023-03-01T06:40:44;15.20;;;11.32;;
65202;SDS011;51788;45.124;38.966;2023-03-01T06:43:16;18.00;;;12.43;;
65202;SDS011;51788;45.124;38.966;2023-03-01T06:45:42;22.83;;;11.73;;
65202;SDS011;51788;45.124;38.966;2023-03-01T06:48:08;19.25;;;12.10;;
65202;SDS011;51788;45.124;38.966;2023-03-01T06:50:34;23.42;;;11.80;;
65202;SDS011;51788;45.124;38.966;2023-03-01T06:53:00;18.35;;;12.65;;
65202;SDS011;51788;45.124;38.966;2023-03-01T06:55:27;31.88;;;12.10;;
65202;SDS011;51788;45.124;38.966;2023-03-01T06:57:56;20.77;;;12.45;;
65202;SDS011;51788;45.124;38.966;2023-03-01T07:00:24;17.83;;;10.23;;
65202;SDS011;51788;45.124;38.966;2023-03-01T07:02:51;16.10;;;12.45;;
65202;SDS011;51788;45.124;38.966;2023-03-01T07:05:17;17.58;;;11.88;;
65202;SDS011;51788;45.124;38.966;2023-03-01T07:07:43;56.38;;;13.57;;
65202;SDS011;51788;45.124;38.966;2023-03-01T07:10:09;27.17;;;14.15;;
65202;SDS011;51788;45.124;38.966;2023-03-01T07:12:36;20.27;;;11.18;;
65202;SDS011;51788;45.124;38.966;2023-03-01T07:15:02;22.52;;;15.13;;
65202;SDS011;51788;45.124;38.966;2023-03-01T07:17:29;16.88;;;11.40;;
65202;SDS011;51788;45.124;38.966;2023-03-01T07:19:54;35.75;;;13.07;;
65202;SDS011;51788;45.124;38.966;2023-03-01T07:22:21;38.17;;;13.88;;
65202;SDS011;51788;45.124;38.966;2023-03-01T07:24:47;25.33;;;12.93;;
65202;SDS011;51788;45.124;38.966;2023-03-01T07:27:13;19.45;;;13.40;;
65202;SDS011;51788;45.124;38.966;2023-03-01T07:29:39;15.88;;;10.00;;
65202;SDS011;51788;45.124;38.966;2023-03-01T07:32:05;18.08;;;11.32;;
65202;SDS011;51788;45.124;38.966;2023-03-01T07:34:32;21.85;;;13.38;;
65202;SDS011;51788;45.124;38.966;2023-03-01T07:36:58;31.58;;;13.05;;
65202;SDS011;51788;45.124;38.966;2023-03-01T07:39:24;15.52;;;11.50;;
65202;SDS011;51788;45.124;38.966;2023-03-01T07:41:50;18.95;;;11.50;;
65202;SDS011;51788;45.124;38.966;2023-03-01T07:44:20;22.15;;;11.88;;
65202;SDS011;51788;45.124;38.966;2023-03-01T07:46:46;19.27;;;12.20;;
65202;SDS011;51788;45.124;38.966;2023-03-01T07:49:12;37.58;;;13.88;;
65202;SDS011;51788;45.124;38.966;2023-03-01T07:51:38;20.42;;;13.50;;
65202;SDS011;51788;45.124;38.966;2023-03-01T07:54:04;29.00;;;13.98;;
65202;SDS011;51788;45.124;38.966;2023-03-01T07:56:30;28.90;;;12.63;;
65202;SDS011;51788;45.124;38.966;2023-03-01T07:58:56;21.52;;;13.02;;
65202;SDS011;51788;45.124;38.966;2023-03-01T08:01:24;39.15;;;12.13;;
65202;SDS011;51788;45.124;38.966;2023-03-01T08:03:50;19.65;;;12.00;;
65202;SDS011;51788;45.124;38.966;2023-03-01T08:06:16;33.70;;;16.35;;
65202;SDS011;51788;45.124;38.966;2023-03-01T08:08:43;19.77;;;13.50;;
65202;SDS011;51788;45.124;38.966;2023-03-01T08:11:10;53.60;;;13.88;;
65202;SDS011;51788;45.124;38.966;2023-03-01T08:13:37;38.33;;;15.88;;
65202;SDS011;51788;45.124;38.966;2023-03-01T08:16:04;23.80;;;14.77;;
65202;SDS011;51788;45.124;38.966;2023-03-01T08:18:38;37.85;;;15.40;;
65202;SDS011;51788;45.124;38.966;2023-03-01T08:21:05;23.30;;;14.60;;
65202;SDS011;51788;45.124;38.966;2023-03-01T08:23:32;39.28;;;14.48;;
65202;SDS011;51788;45.124;38.966;2023-03-01T08:26:11;21.42;;;15.40;;
65202;SDS011;51788;45.124;38.966;2023-03-01T08:28:39;19.55;;;11.73;;
65202;SDS011;51788;45.124;38.966;2023-03-01T08:31:16;27.90;;;11.95;;
65202;SDS011;51788;45.124;38.966;2023-03-01T08:33:44;19.17;;;12.45;;
65202;SDS011;51788;45.124;38.966;2023-03-01T08:36:16;18.50;;;11.40;;
65202;SDS011;51788;45.124;38.966;2023-03-01T08:38:42;31.13;;;13.90;;
65202;SDS011;51788;45.124;38.966;2023-03-01T08:41:09;19.45;;;10.80;;
65202;SDS011;51788;45.124;38.966;2023-03-01T08:43:34;19.38;;;12.10;;
65202;SDS011;51788;45.124;38.966;2023-03-01T08:46:00;15.25;;;10.98;;
65202;SDS011;51788;45.124;38.966;2023-03-01T08:48:27;15.20;;;10.75;;
65202;SDS011;51788;45.124;38.966;2023-03-01T08:50:54;29.27;;;11.65;;
65202;SDS011;51788;45.124;38.966;2023-03-01T08:53:20;16.23;;;11.30;;
65202;SDS011;51788;45.124;38.966;2023-03-01T08:55:46;13.05;;;9.60;;
65202;SDS011;51788;45.124;38.966;2023-03-01T08:58:12;45.97;;;12.48;;
65202;SDS011;51788;45.124;38.966;2023-03-01T09:00:38;15.30;;;8.85;;
65202;SDS011;51788;45.124;38.966;2023-03-01T09:03:05;13.82;;;9.80;;
65202;SDS011;51788;45.124;38.966;2023-03-01T09:05:32;30.70;;;9.52;;
65202;SDS011;51788;45.124;38.966;2023-03-01T09:07:59;19.35;;;9.27;;
65202;SDS011;51788;45.124;38.966;2023-03-01T09:10:25;17.42;;;10.20;;
65202;SDS011;51788;45.124;38.966;2023-03-01T09:12:51;32.97;;;11.85;;
65202;SDS011;51788;45.124;38.966;2023-03-01T09:15:17;18.73;;;11.80;;
65202;SDS011;51788;45.124;38.966;2023-03-01T09:17:43;15.32;;;13.38;;
65202;SDS011;51788;45.124;38.966;2023-03-01T09:20:09;18.70;;;13.10;;
65202;SDS011;51788;45.124;38.966;2023-03-01T09:22:35;19.08;;;11.77;;
65202;SDS011;51788;45.124;38.966;2023-03-01T09:25:01;16.23;;;10.38;;
65202;SDS011;51788;45.124;38.966;2023-03-01T09:27:27;24.60;;;11.30;;
65202;SDS011;51788;45.124;38.966;2023-03-01T09:29:53;21.20;;;12.50;;
65202;SDS011;51788;45.124;38.966;2023-03-01T09:32:21;16.65;;;11.45;;
65202;SDS011;51788;45.124;38.966;2023-03-01T09:34:47;36.70;;;12.73;;
65202;SDS011;51788;45.124;38.966;2023-03-01T09:37:32;25.10;;;10.05;;
65202;SDS011;51788;45.124;38.966;2023-03-01T09:39:59;33.13;;;12.50;;
65202;SDS011;51788;45.124;38.966;2023-03-01T09:42:25;38.85;;;12.10;;
65202;SDS011;51788;45.124;38.966;2023-03-01T09:45:04;17.10;;;10.82;;
65202;SDS011;51788;45.124;38.966;2023-03-01T09:47:33;13.30;;;9.70;;
65202;SDS011;51788;45.124;38.966;2023-03-01T09:53:16;15.73;;;11.60;;
65202;SDS011;51788;45.124;38.966;2023-03-01T10:01:09;18.63;;;12.70;;
65202;SDS011;51788;45.124;38.966;2023-03-01T10:03:51;16.63;;;11.07;;
65202;SDS011;51788;45.124;38.966;2023-03-01T10:06:42;96.15;;;15.68;;
65202;SDS011;51788;45.124;38.966;2023-03-01T10:09:17;15.38;;;10.35;;
65202;SDS011;51788;45.124;38.966;2023-03-01T10:11:51;30.88;;;10.23;;
65202;SDS011;51788;45.124;38.966;2023-03-01T10:17:28;34.75;;;11.77;;
65202;SDS011;51788;45.124;38.966;2023-03-01T10:19:58;25.98;;;10.07;;
65202;SDS011;51788;45.124;38.966;2023-03-01T10:22:45;24.23;;;10.75;;
65202;SDS011;51788;45.124;38.966;2023-03-01T10:25:17;22.55;;;10.93;;
65202;SDS011;51788;45.124;38.966;2023-03-01T10:27:59;16.27;;;9.02;;
65202;SDS011;51788;45.124;38.966;2023-03-01T10:30:34;26.52;;;8.90;;
65202;SDS011;51788;45.124;38.966;2023-03-01T10:33:15;22.55;;;11.25;;
65202;SDS011;51788;45.124;38.966;2023-03-01T10:35:45;13.80;;;9.07;;
65202;SDS011;51788;45.124;38.966;2023-03-01T10:38:13;12.95;;;10.02;;
65202;SDS011;51788;45.124;38.966;2023-03-01T10:40:59;18.90;;;9.88;;
65202;SDS011;51788;45.124;38.966;2023-03-01T10:43:32;37.03;;;10.20;;
65202;SDS011;51788;45.124;38.966;2023-03-01T10:51:39;27.27;;;11.70;;
65202;SDS011;51788;45.124;38.966;2023-03-01T10:54:14;16.00;;;9.50;;
65202;SDS011;51788;45.124;38.966;2023-03-01T10:56:50;39.47;;;10.05;;
65202;SDS011;51788;45.124;38.966;2023-03-01T10:59:32;20.25;;;9.18;;
65202;SDS011;51788;45.124;38.966;2023-03-01T11:02:08;13.60;;;7.72;;
65202;SDS011;51788;45.124;38.966;2023-03-01T11:10:20;19.10;;;10.27;;
65202;SDS011;51788;45.124;38.966;2023-03-01T11:12:49;15.63;;;9.63;;
65202;SDS011;51788;45.124;38.966;2023-03-01T11:15:21;12.63;;;7.97;;
65202;SDS011;51788;45.124;38.966;2023-03-01T11:17:50;25.95;;;8.85;;
65202;SDS011;51788;45.124;38.966;2023-03-01T11:23:19;21.35;;;8.23;;
65202;SDS011;51788;45.124;38.966;2023-03-01T11:25:47;25.20;;;7.88;;
65202;SDS011;51788;45.124;38.966;2023-03-01T11:28:18;22.15;;;8.63;;
65202;SDS011;51788;45.124;38.966;2023-03-01T11:31:06;12.65;;;8.40;;
65202;SDS011;51788;45.124;38.966;2023-03-01T11:33:53;23.65;;;9.10;;
65202;SDS011;51788;45.124;38.966;2023-03-01T11:39:34;13.50;;;8.20;;
65202;SDS011;51788;45.124;38.966;2023-03-01T11:42:17;28.05;;;8.15;;
65202;SDS011;51788;45.124;38.966;2023-03-01T11:44:47;16.08;;;7.63;;
65202;SDS011;51788;45.124;38.966;2023-03-01T12:01:03;38.92;;;9.43;;
65202;SDS011;51788;45.124;38.966;2023-03-01T12:03:47;20.08;;;8.63;;
65202;SDS011;51788;45.124;38.966;2023-03-01T12:20:12;10.07;;;7.10;;
65202;SDS011;51788;45.124;38.966;2023-03-01T12:23:13;43.53;;;7.43;;
65202;SDS011;51788;45.124;38.966;2023-03-01T12:31:52;36.47;;;8.85;;
65202;SDS011;51788;45.124;38.966;2023-03-01T12:37:09;33.25;;;8.60;;
65202;SDS011;51788;45.124;38.966;2023-03-01T12:50:47;28.17;;;9.00;;
65202;SDS011;51788;45.124;38.966;2023-03-01T12:53:24;35.47;;;10.70;;
65202;SDS011;51788;45.124;38.966;2023-03-01T12:55:54;34.35;;;10.65;;
65202;SDS011;51788;45.124;38.966;2023-03-01T13:04:06;22.70;;;12.73;;
65202;SDS011;51788;45.124;38.966;2023-03-01T13:06:44;20.20;;;12.50;;
65202;SDS011;51788;45.124;38.966;2023-03-01T13:12:03;30.17;;;14.93;;
65202;SDS011;51788;45.124;38.966;2023-03-01T13:16:58;65.75;;;12.77;;
65202;SDS011;51788;45.124;38.966;2023-03-01T13:19:25;22.33;;;13.13;;
65202;SDS011;51788;45.124;38.966;2023-03-01T13:21:54;26.38;;;14.02;;
65202;SDS011;51788;45.124;38.966;2023-03-01T13:29:43;23.85;;;11.85;;
65202;SDS011;51788;45.124;38.966;2023-03-01T13:32:20;40.42;;;11.40;;
65202;SDS011;51788;45.124;38.966;2023-03-01T13:34:47;28.42;;;11.82;;
65202;SDS011;51788;45.124;38.966;2023-03-01T13:37:24;24.50;;;11.32;;
65202;SDS011;51788;45.124;38.966;2023-03-01T13:39:56;22.50;;;12.80;;
65202;SDS011;51788;45.124;38.966;2023-03-01T13:44:58;22.77;;;13.02;;
65202;SDS011;51788;45.124;38.966;2023-03-01T13:47:24;41.25;;;13.20;;
65202;SDS011;51788;45.124;38.966;2023-03-01T13:49:52;25.02;;;11.43;;
65202;SDS011;51788;45.124;38.966;2023-03-01T13:52:41;22.52;;;14.68;;
65202;SDS011;51788;45.124;38.966;2023-03-01T13:58:05;23.02;;;13.85;;
65202;SDS011;51788;45.124;38.966;2023-03-01T14:03:22;79.53;;;15.45;;
65202;SDS011;51788;45.124;38.966;2023-03-01T14:08:31;24.08;;;13.07;;
65202;SDS011;51788;45.124;38.966;2023-03-01T14:16:45;23.08;;;12.88;;
65202;SDS011;51788;45.124;38.966;2023-03-01T14:21:46;25.63;;;13.07;;
65202;SDS011;51788;45.124;38.966;2023-03-01T14:24:20;40.70;;;13.82;;
65202;SDS011;51788;45.124;38.966;2023-03-01T14:26:48;26.30;;;13.70;;
65202;SDS011;51788;45.124;38.966;2023-03-01T14:29:25;31.80;;;14.00;;
65202;SDS011;51788;45.124;38.966;2023-03-01T14:32:09;26.92;;;13.00;;
65202;SDS011;51788;45.124;38.966;2023-03-01T14:34:35;36.00;;;14.25;;
65202;SDS011;51788;45.124;38.966;2023-03-01T14:37:24;22.98;;;13.52;;
65202;SDS011;51788;45.124;38.966;2023-03-01T14:39:52;50.25;;;13.27;;
65202;SDS011;51788;45.124;38.966;2023-03-01T14:42:19;26.08;;;12.75;;
65202;SDS011;51788;45.124;38.966;2023-03-01T14:44:48;23.08;;;13.30;;
65202;SDS011;51788;45.124;38.966;2023-03-01T14:47:20;18.48;;;11.90;;
65202;SDS011;51788;45.124;38.966;2023-03-01T14:50:00;24.67;;;13.00;;
65202;SDS011;51788;45.124;38.966;2023-03-01T14:52:34;54.30;;;15.85;;
65202;SDS011;51788;45.124;38.966;2023-03-01T14:55:04;22.70;;;12.93;;
65202;SDS011;51788;45.124;38.966;2023-03-01T14:57:32;18.75;;;11.95;;
65202;SDS011;51788;45.124;38.966;2023-03-01T14:59:58;18.15;;;11.18;;
65202;SDS011;51788;45.124;38.966;2023-03-01T15:02:30;17.20;;;10.63;;
65202;SDS011;51788;45.124;38.966;2023-03-01T15:04:59;23.52;;;11.02;;
65202;SDS011;51788;45.124;38.966;2023-03-01T15:07:30;21.05;;;10.88;;
65202;SDS011;51788;45.124;38.966;2023-03-01T15:09:59;19.77;;;11.23;;
65202;SDS011;51788;45.124;38.966;2023-03-01T15:14:52;48.20;;;13.52;;
65202;SDS011;51788;45.124;38.966;2023-03-01T15:17:32;32.83;;;12.60;;
65202;SDS011;51788;45.124;38.966;2023-03-01T15:20:00;39.97;;;13.63;;
65202;SDS011;51788;45.124;38.966;2023-03-01T15:22:29;20.65;;;11.20;;
65202;SDS011;51788;45.124;38.966;2023-03-01T15:24:55;18.98;;;11.10;;
65202;SDS011;51788;45.124;38.966;2023-03-01T15:27:22;23.13;;;10.45;;
65202;SDS011;51788;45.124;38.966;2023-03-01T15:29:52;23.40;;;11.38;;
65202;SDS011;51788;45.124;38.966;2023-03-01T15:32:34;34.85;;;11.48;;
65202;SDS011;51788;45.124;38.966;2023-03-01T15:37:59;36.03;;;13.10;;
65202;SDS011;51788;45.124;38.966;2023-03-01T15:40:29;31.98;;;15.48;;
65202;SDS011;51788;45.124;38.966;2023-03-01T15:42:59;21.80;;;12.65;;
65202;SDS011;51788;45.124;38.966;2023-03-01T15:45:32;45.70;;;13.80;;
65202;SDS011;51788;45.124;38.966;2023-03-01T15:48:13;17.00;;;12.63;;
65202;SDS011;51788;45.124;38.966;2023-03-01T15:50:42;40.13;;;13.00;;
65202;SDS011;51788;45.124;38.966;2023-03-01T15:53:12;44.95;;;14.40;;
65202;SDS011;51788;45.124;38.966;2023-03-01T15:55:39;36.58;;;12.85;;
65202;SDS011;51788;45.124;38.966;2023-03-01T15:58:09;27.17;;;14.20;;
65202;SDS011;51788;45.124;38.966;2023-03-01T16:00:41;49.88;;;15.73;;
65202;SDS011;51788;45.124;38.966;2023-03-01T16:03:08;43.08;;;14.63;;
65202;SDS011;51788;45.124;38.966;2023-03-01T16:05:37;28.17;;;13.82;;
65202;SDS011;51788;45.124;38.966;2023-03-01T16:08:04;31.92;;;14.82;;
65202;SDS011;51788;45.124;38.966;2023-03-01T16:10:34;30.83;;;13.80;;
65202;SDS011;51788;45.124;38.966;2023-03-01T16:15:33;44.13;;;15.50;;
65202;SDS011;51788;45.124;38.966;2023-03-01T16:18:03;42.42;;;15.15;;
65202;SDS011;51788;45.124;38.966;2023-03-01T16:20:35;37.88;;;13.40;;
65202;SDS011;51788;45.124;38.966;2023-03-01T16:23:02;32.92;;;14.80;;
65202;SDS011;51788;45.124;38.966;2023-03-01T16:25:31;21.88;;;12.45;;
65202;SDS011;51788;45.124;38.966;2023-03-01T16:27:57;40.90;;;14.70;;
65202;SDS011;51788;45.124;38.966;2023-03-01T16:30:26;44.25;;;14.68;;
65202;SDS011;51788;45.124;38.966;2023-03-01T16:32:52;37.55;;;14.90;;
65202;SDS011;51788;45.124;38.966;2023-03-01T16:35:19;31.88;;;12.98;;
65202;SDS011;51788;45.124;38.966;2023-03-01T16:37:46;22.05;;;12.73;;
65202;SDS011;51788;45.124;38.966;2023-03-01T16:40:17;36.08;;;12.55;;